createdAt,value
2022-11-02T00:00:53.217Z,45.53
2022-11-02T00:03:31.141Z,43.40
2022-11-02T00:05:59.240Z,39.58
2022-11-02T00:08:26.733Z,39.17
2022-11-02T00:10:54.522Z,38.58
2022-11-02T00:13:22.173Z,35.33
2022-11-02T00:15:50.088Z,33.20
2022-11-02T00:18:17.789Z,32.28
2022-11-02T00:20:45.816Z,30.40
2022-11-02T00:23:14.823Z,46.72
2022-11-02T00:28:15.657Z,71.72
2022-11-02T00:30:44.441Z,67.45
2022-11-02T00:33:12.251Z,68.00
2022-11-02T00:35:41.269Z,55.42
2022-11-02T00:38:08.931Z,53.20
2022-11-02T00:40:36.886Z,55.53
2022-11-02T00:43:06.308Z,73.32
2022-11-02T00:45:34.348Z,69.88
2022-11-02T00:48:02.295Z,63.80
2022-11-02T00:50:31.327Z,54.92
2022-11-02T00:52:58.891Z,55.58
2022-11-02T00:55:26.760Z,59.88
2022-11-02T00:57:59.172Z,65.13
2022-11-02T01:00:27.136Z,64.68
2022-11-02T01:02:54.645Z,72.70
2022-11-02T01:05:22.432Z,68.85
2022-11-02T01:07:50.059Z,71.15
2022-11-02T01:10:17.951Z,71.72
2022-11-02T01:12:47.513Z,70.55
2022-11-02T01:15:15.406Z,71.07
2022-11-02T01:17:42.872Z,67.28
2022-11-02T01:20:11.397Z,65.50
2022-11-02T01:22:39.007Z,69.25
2022-11-02T01:25:07.974Z,68.53
2022-11-02T01:27:35.710Z,64.03
2022-11-02T01:30:05.656Z,67.40
2022-11-02T01:32:33.319Z,68.15
2022-11-02T01:35:02.837Z,68.28
2022-11-02T01:39:58.264Z,64.82
2022-11-02T01:42:28.556Z,69.60
2022-11-02T01:44:57.506Z,71.43
2022-11-02T01:47:36.145Z,68.43
2022-11-02T01:50:19.122Z,71.85
2022-11-02T01:52:46.856Z,71.75
2022-11-02T01:55:26.210Z,73.47
2022-11-02T01:58:00.975Z,70.40
2022-11-02T02:00:28.940Z,73.70
2022-11-02T02:03:21.360Z,72.93
2022-11-02T02:06:13.878Z,74.70
2022-11-02T02:08:46.253Z,75.38
2022-11-02T02:11:37.548Z,71.78
2022-11-02T02:14:18.776Z,70.03
2022-11-02T02:17:25.077Z,69.95
2022-11-02T02:20:10.314Z,65.57
2022-11-02T02:23:25.401Z,74.35
2022-11-02T02:26:32.428Z,73.13
2022-11-02T02:29:09.048Z,72.22
2022-11-02T02:31:38.786Z,75.25
2022-11-02T02:34:21.013Z,73.45
2022-11-02T02:37:08.105Z,69.22
2022-11-02T02:39:44.349Z,70.90
2022-11-02T02:42:43.936Z,72.22
2022-11-02T02:45:23.322Z,76.13
2022-11-02T02:48:26.793Z,76.43
2022-11-02T02:51:02.275Z,72.95
2022-11-02T02:53:41.947Z,76.05
2022-11-02T02:56:12.143Z,74.32
2022-11-02T02:58:56.935Z,74.63
2022-11-02T03:01:26.523Z,75.93
2022-11-02T03:03:54.621Z,75.72
2022-11-02T03:06:35.425Z,77.03
2022-11-02T03:09:30.201Z,79.43
2022-11-02T03:12:06.978Z,72.90
2022-11-02T03:14:58.859Z,74.95
2022-11-02T03:18:06.099Z,75.53
2022-11-02T03:20:59.051Z,71.10
2022-11-02T03:23:37.872Z,71.38
2022-11-02T03:26:36.424Z,70.28
2022-11-02T03:29:09.863Z,73.43
2022-11-02T03:31:56.938Z,75.43
2022-11-02T03:34:45.695Z,78.93
2022-11-02T03:37:26.288Z,77.80
2022-11-02T03:40:25.612Z,79.43
2022-11-02T03:42:56.247Z,76.28
2022-11-02T03:45:30.024Z,79.10
2022-11-02T03:48:06.936Z,78.75
2022-11-02T03:50:37.815Z,81.32
2022-11-02T03:53:40.946Z,80.68
2022-11-02T03:56:23.141Z,80.85
2022-11-02T03:58:51.683Z,82.00
2022-11-02T04:01:21.167Z,81.25
2022-11-02T04:03:50.023Z,79.75
2022-11-02T04:06:19.819Z,78.85
2022-11-02T04:08:49.756Z,75.93
2022-11-02T04:11:39.168Z,78.95
2022-11-02T04:14:30.396Z,76.65
2022-11-02T04:17:18.411Z,75.43
2022-11-02T04:19:50.074Z,76.90
2022-11-02T04:22:39.326Z,71.20
2022-11-02T04:25:18.587Z,74.88
2022-11-02T04:28:15.188Z,72.53
2022-11-02T04:30:49.600Z,76.85
2022-11-02T04:33:34.797Z,72.90
2022-11-02T04:36:14.647Z,70.10
2022-11-02T04:38:43.333Z,62.83
2022-11-02T04:41:40.019Z,63.53
2022-11-02T04:44:14.635Z,62.67
2022-11-02T04:46:45.247Z,66.38
2022-11-02T04:49:14.798Z,62.67
2022-11-02T04:51:48.691Z,58.50
2022-11-02T04:54:19.464Z,63.30
2022-11-02T04:56:51.204Z,63.40
2022-11-02T04:59:21.347Z,62.83
2022-11-02T05:01:49.405Z,57.55
2022-11-02T05:04:17.723Z,57.28
2022-11-02T05:06:46.961Z,59.17
2022-11-02T05:09:14.764Z,56.45
2022-11-02T05:11:45.965Z,55.85
2022-11-02T05:14:13.776Z,59.30
2022-11-02T05:16:41.470Z,51.92
2022-11-02T05:19:11.100Z,51.13
2022-11-02T05:21:40.465Z,51.15
2022-11-02T05:24:11.821Z,51.70
2022-11-02T05:26:39.885Z,51.95
2022-11-02T05:29:09.431Z,53.08
2022-11-02T05:31:37.956Z,51.72
2022-11-02T05:34:06.319Z,51.38
2022-11-02T05:36:33.939Z,51.10
2022-11-02T05:39:02.425Z,51.90
2022-11-02T05:41:30.215Z,51.13
2022-11-02T05:44:00.130Z,50.13
2022-11-02T05:48:57.298Z,49.78
2022-11-02T05:51:25.003Z,49.40
2022-11-02T05:53:52.819Z,50.88
2022-11-02T05:56:24.791Z,54.10
2022-11-02T05:58:55.699Z,50.58
2022-11-02T06:01:23.585Z,49.75
2022-11-02T06:03:53.749Z,48.88
2022-11-02T06:06:22.099Z,48.83
2022-11-02T06:08:49.962Z,47.50
2022-11-02T06:11:17.788Z,46.85
2022-11-02T06:13:49.473Z,43.53
2022-11-02T06:16:22.629Z,46.10
2022-11-02T06:18:50.812Z,44.65
2022-11-02T06:21:18.587Z,43.88
2022-11-02T06:23:49.792Z,46.47
2022-11-02T06:26:17.422Z,47.28
2022-11-02T06:28:45.229Z,48.85
2022-11-02T06:31:31.083Z,47.78
2022-11-02T06:33:58.887Z,45.53
2022-11-02T06:36:26.465Z,48.78
2022-11-02T06:38:54.260Z,48.47
2022-11-02T06:41:22.256Z,44.90
2022-11-02T06:43:50.165Z,44.40
2022-11-02T06:46:17.895Z,45.70
2022-11-02T06:48:48.419Z,45.10
2022-11-02T06:51:16.329Z,44.53
2022-11-02T06:53:44.112Z,47.38
2022-11-02T06:56:12.499Z,42.40
2022-11-02T06:58:40.580Z,43.72
2022-11-02T07:01:08.998Z,40.60
2022-11-02T07:03:37.309Z,43.50
2022-11-02T07:06:09.692Z,41.28
2022-11-02T07:08:40.696Z,41.38
2022-11-02T07:11:08.244Z,43.92
2022-11-02T07:13:37.823Z,42.25
2022-11-02T07:16:05.700Z,40.67
2022-11-02T07:18:33.402Z,39.45
2022-11-02T07:21:01.715Z,42.75
2022-11-02T07:23:29.735Z,38.28
2022-11-02T07:25:57.226Z,39.38
2022-11-02T07:28:24.977Z,39.45
2022-11-02T07:30:55.488Z,38.28
2022-11-02T07:33:23.484Z,43.22
2022-11-02T07:35:51.131Z,42.65
2022-11-02T07:38:19.111Z,42.17
2022-11-02T07:40:50.890Z,42.40
2022-11-02T07:43:18.655Z,42.85
2022-11-02T07:45:57.487Z,42.00
2022-11-02T07:48:25.279Z,35.75
2022-11-02T07:50:52.789Z,35.58
2022-11-02T07:53:20.570Z,35.28
2022-11-02T07:55:48.124Z,33.20
2022-11-02T07:58:15.899Z,33.42
2022-11-02T08:00:43.664Z,36.05
2022-11-02T08:03:12.635Z,33.33
2022-11-02T08:05:42.877Z,33.65
2022-11-02T08:08:17.791Z,36.08
2022-11-02T08:10:48.125Z,31.77
2022-11-02T08:13:20.499Z,33.15
2022-11-02T08:15:52.906Z,32.78
2022-11-02T08:18:23.605Z,30.67
2022-11-02T08:20:51.631Z,33.38
2022-11-02T08:23:21.004Z,32.45
2022-11-02T08:25:50.893Z,34.65
2022-11-02T08:28:32.236Z,34.60
2022-11-02T08:31:00.003Z,34.58
2022-11-02T08:33:31.571Z,31.63
2022-11-02T08:36:06.277Z,34.97
2022-11-02T08:38:34.369Z,36.42
2022-11-02T08:41:04.468Z,35.63
2022-11-02T08:43:32.311Z,36.33
2022-11-02T08:46:17.228Z,34.50
2022-11-02T08:48:45.572Z,33.03
2022-11-02T08:51:13.204Z,35.03
2022-11-02T08:53:41.172Z,34.38
2022-11-02T08:56:08.733Z,36.65
2022-11-02T08:58:36.581Z,35.80
2022-11-02T09:01:04.137Z,34.28
2022-11-02T09:03:32.203Z,35.83
2022-11-02T09:06:02.101Z,33.75
2022-11-02T09:08:31.451Z,36.92
2022-11-02T09:11:03.787Z,38.92
2022-11-02T09:13:31.836Z,37.95
2022-11-02T09:16:00.747Z,37.92
2022-11-02T09:18:28.941Z,39.35
2022-11-02T09:20:57.075Z,37.03
2022-11-02T09:23:28.285Z,37.25
2022-11-02T09:25:56.014Z,38.50
2022-11-02T09:28:23.880Z,36.00
2022-11-02T09:30:51.353Z,41.30
2022-11-02T09:33:19.491Z,39.90
2022-11-02T09:35:49.262Z,37.88
2022-11-02T09:38:18.709Z,38.63
2022-11-02T09:40:56.195Z,38.72
2022-11-02T09:43:33.077Z,35.58
2022-11-02T09:46:16.839Z,38.42
2022-11-02T09:48:56.123Z,39.85
2022-11-02T09:51:56.725Z,42.17
2022-11-02T09:54:40.890Z,42.22
2022-11-02T09:57:38.628Z,42.53
2022-11-02T10:00:13.186Z,40.80
2022-11-02T10:03:06.206Z,39.90
2022-11-02T10:05:34.774Z,44.28
2022-11-02T10:08:44.349Z,46.33
2022-11-02T10:11:28.192Z,45.72
2022-11-02T10:14:23.258Z,48.90
2022-11-02T10:17:29.965Z,47.17
2022-11-02T10:20:05.137Z,47.95
2022-11-02T10:22:41.591Z,48.10
2022-11-02T10:25:16.046Z,44.95
2022-11-02T10:27:48.916Z,43.72
2022-11-02T10:30:20.556Z,42.55
2022-11-02T10:32:53.028Z,40.35
2022-11-02T10:36:23.961Z,41.63
2022-11-02T10:39:24.719Z,44.15
2022-11-02T10:42:10.487Z,44.50
2022-11-02T10:45:12.043Z,44.40
2022-11-02T10:48:11.353Z,46.15
2022-11-02T10:51:08.946Z,46.55
2022-11-02T10:53:44.054Z,47.83
2022-11-02T10:56:25.323Z,50.15
2022-11-02T10:59:14.190Z,50.50
2022-11-02T11:01:57.305Z,51.35
2022-11-02T11:04:28.391Z,49.35
2022-11-02T11:06:57.378Z,50.10
2022-11-02T11:09:36.995Z,49.50
2022-11-02T11:12:38.562Z,48.85
2022-11-02T11:20:44.447Z,52.30
2022-11-02T11:23:26.365Z,48.47
2022-11-02T11:25:57.672Z,47.30
2022-11-02T11:28:32.528Z,46.83
2022-11-02T11:31:17.740Z,46.83
2022-11-02T11:33:58.491Z,47.03
2022-11-02T11:36:36.069Z,43.13
2022-11-02T11:39:29.537Z,46.42
2022-11-02T11:41:58.528Z,43.05
2022-11-02T11:44:26.598Z,43.92
2022-11-02T11:46:58.706Z,43.45
2022-11-02T11:50:03.092Z,45.25
2022-11-02T11:52:31.963Z,43.25
2022-11-02T11:55:19.143Z,42.20
2022-11-02T11:57:46.860Z,41.30
2022-11-02T12:00:29.795Z,38.72
2022-11-02T12:03:12.163Z,40.13
2022-11-02T12:05:51.870Z,42.13
2022-11-02T12:08:42.392Z,43.55
2022-11-02T12:12:03.502Z,42.55
2022-11-02T12:15:07.084Z,42.65
2022-11-02T12:17:35.044Z,44.25
2022-11-02T12:20:36.118Z,44.33
2022-11-02T12:23:39.172Z,44.70
2022-11-02T12:26:49.068Z,45.75
2022-11-02T12:30:04.185Z,46.28
2022-11-02T12:32:52.667Z,43.53
2022-11-02T12:35:48.444Z,39.25
2022-11-02T12:39:30.079Z,41.42
2022-11-02T12:42:25.841Z,43.60
2022-11-02T12:45:26.703Z,38.85
2022-11-02T12:48:02.288Z,47.00
2022-11-02T12:50:54.801Z,42.53
2022-11-02T12:53:31.595Z,42.03
2022-11-02T12:56:04.133Z,41.85
2022-11-02T12:58:37.360Z,43.13
2022-11-02T13:01:27.536Z,43.83
2022-11-02T13:04:02.205Z,41.50
2022-11-02T13:06:39.833Z,42.85
2022-11-02T13:09:29.116Z,43.47
2022-11-02T13:12:15.509Z,48.17
2022-11-02T13:15:06.652Z,46.45
2022-11-02T13:17:49.750Z,43.88
2022-11-02T13:20:42.717Z,45.83
2022-11-02T13:23:34.632Z,46.67
2022-11-02T13:26:23.817Z,47.45
2022-11-02T13:29:06.735Z,47.75
2022-11-02T13:32:09.945Z,49.15
2022-11-02T13:34:45.181Z,50.25
2022-11-02T13:37:35.611Z,49.25
2022-11-02T13:40:26.099Z,52.30
2022-11-02T13:43:47.728Z,55.90
2022-11-02T13:46:47.844Z,55.92
2022-11-02T13:49:43.404Z,55.63
2022-11-02T13:52:36.839Z,51.95
2022-11-02T13:55:07.829Z,52.83
2022-11-02T13:57:45.919Z,49.47
2022-11-02T14:00:31.017Z,48.20
2022-11-02T14:03:17.960Z,48.35
2022-11-02T14:06:00.782Z,44.88
2022-11-02T14:09:07.774Z,43.92
2022-11-02T14:11:47.874Z,40.80
2022-11-02T14:14:23.089Z,36.67
2022-11-02T14:16:50.863Z,37.33
2022-11-02T14:19:20.285Z,37.78
2022-11-02T14:21:51.263Z,36.20
2022-11-02T14:24:34.179Z,32.78
2022-11-02T14:27:23.374Z,29.45
2022-11-02T14:29:54.579Z,27.85
2022-11-02T14:32:26.671Z,29.27
2022-11-02T14:35:27.919Z,29.45
2022-11-02T14:38:36.343Z,27.88
2022-11-02T14:41:16.403Z,27.10
2022-11-02T14:43:59.167Z,27.48
2022-11-02T14:46:46.552Z,22.40
2022-11-02T14:49:37.433Z,23.95
2022-11-02T14:52:23.178Z,21.50
2022-11-02T14:55:19.861Z,20.77
2022-11-02T14:58:00.822Z,21.38
2022-11-02T15:00:47.452Z,22.33
2022-11-02T15:03:24.331Z,20.95
2022-11-02T15:06:13.906Z,22.33
2022-11-02T15:08:58.716Z,19.52
2022-11-02T15:12:01.372Z,21.55
2022-11-02T15:14:35.873Z,18.75
2022-11-02T15:17:15.352Z,18.65
2022-11-02T15:20:16.084Z,20.13
2022-11-02T15:23:28.476Z,19.50
2022-11-02T15:25:59.973Z,19.95
2022-11-02T15:28:32.611Z,19.55
2022-11-02T15:31:06.588Z,20.17
2022-11-02T15:33:44.366Z,19.50
2022-11-02T15:36:39.684Z,21.13
2022-11-02T15:39:10.729Z,21.27
2022-11-02T15:42:03.382Z,20.10
2022-11-02T15:44:45.941Z,20.63
2022-11-02T15:47:28.666Z,19.77
2022-11-02T15:50:17.768Z,19.25
2022-11-02T15:53:23.504Z,18.02
2022-11-02T15:56:25.504Z,17.95
2022-11-02T15:59:25.720Z,17.65
2022-11-02T16:02:29.921Z,16.63
2022-11-02T16:05:01.850Z,17.85
2022-11-02T16:07:38.384Z,19.90
2022-11-02T16:10:36.746Z,19.60
2022-11-02T16:13:17.224Z,20.63
2022-11-02T16:15:48.973Z,21.33
2022-11-02T16:18:44.860Z,20.08
2022-11-02T16:21:17.911Z,21.55
2022-11-02T16:23:53.966Z,22.17
2022-11-02T16:26:29.482Z,22.27
2022-11-02T16:28:59.912Z,22.63
2022-11-02T16:31:32.959Z,21.38
2022-11-02T16:34:15.811Z,24.23
2022-11-02T16:36:44.041Z,24.45
2022-11-02T16:39:23.166Z,23.63
2022-11-02T16:41:56.294Z,25.95
2022-11-02T16:44:36.100Z,24.95
2022-11-02T16:47:07.222Z,25.55
2022-11-02T16:49:58.172Z,26.67
2022-11-02T16:52:37.940Z,24.73
2022-11-02T16:58:09.571Z,25.95
2022-11-02T17:00:37.411Z,25.92
2022-11-02T17:03:14.480Z,26.52
2022-11-02T17:05:47.827Z,25.50
2022-11-02T17:08:35.515Z,26.55
2022-11-02T17:11:05.906Z,25.02
2022-11-02T17:13:43.511Z,27.05
2022-11-02T17:16:13.636Z,26.25
2022-11-02T17:18:42.030Z,27.23
2022-11-02T17:21:26.162Z,29.80
2022-11-02T17:23:55.378Z,28.42
2022-11-02T17:26:22.952Z,27.45
2022-11-02T17:28:59.648Z,27.95
2022-11-02T17:31:41.241Z,26.08
2022-11-02T17:34:17.574Z,27.98
2022-11-02T17:36:49.006Z,26.05
2022-11-02T17:39:20.237Z,26.25
2022-11-02T17:42:17.014Z,27.27
2022-11-02T17:44:45.729Z,26.48
2022-11-02T17:47:17.787Z,27.63
2022-11-02T17:49:45.401Z,26.10
2022-11-02T17:52:16.404Z,27.63
2022-11-02T17:54:44.235Z,28.10
2022-11-02T17:57:15.257Z,27.52
2022-11-02T17:59:42.791Z,26.83
2022-11-02T18:02:15.781Z,26.77
2022-11-02T18:07:16.774Z,27.88
2022-11-02T18:09:44.302Z,27.95
2022-11-02T18:12:15.988Z,27.40
2022-11-02T18:14:43.640Z,26.35
2022-11-02T18:17:11.694Z,28.52
2022-11-02T18:19:39.385Z,27.60
2022-11-02T18:22:09.386Z,27.60
2022-11-02T18:24:37.519Z,28.25
2022-11-02T18:27:05.310Z,28.05
2022-11-02T18:29:32.762Z,29.98
2022-11-02T18:32:00.522Z,28.85
2022-11-02T18:34:28.012Z,31.67
2022-11-02T18:36:55.962Z,32.08
2022-11-02T18:39:23.751Z,35.38
2022-11-02T18:41:53.421Z,38.38
2022-11-02T18:46:57.773Z,38.25
2022-11-02T18:49:27.459Z,38.40
2022-11-02T18:51:55.459Z,41.63
2022-11-02T18:54:23.005Z,41.83
2022-11-02T18:56:50.957Z,38.22
2022-11-02T18:59:18.458Z,40.72
2022-11-02T19:01:46.662Z,42.72
2022-11-02T19:04:17.445Z,42.38
2022-11-02T19:07:04.957Z,41.60
2022-11-02T19:09:33.681Z,41.90
2022-11-02T19:12:07.908Z,40.10
2022-11-02T19:14:46.893Z,40.50
2022-11-02T19:19:49.181Z,43.20
2022-11-02T19:22:21.246Z,45.08
2022-11-02T19:24:49.664Z,47.75
2022-11-02T19:27:25.491Z,54.90
2022-11-02T19:29:53.088Z,56.17
2022-11-02T19:32:21.822Z,61.15
2022-11-02T19:34:50.556Z,58.40
2022-11-02T19:37:19.372Z,54.72
2022-11-02T19:39:49.601Z,56.38
2022-11-02T19:42:18.148Z,56.45
2022-11-02T19:44:46.640Z,51.15
2022-11-02T19:47:14.686Z,48.08
2022-11-02T19:49:43.322Z,45.92
2022-11-02T19:52:11.523Z,41.92
2022-11-02T19:54:39.076Z,42.30
2022-11-02T19:57:11.044Z,40.15
2022-11-02T19:59:38.776Z,38.15
2022-11-02T20:02:06.758Z,39.38
2022-11-02T20:04:41.035Z,39.47
2022-11-02T20:07:10.278Z,39.70
2022-11-02T20:09:37.865Z,37.67
2022-11-02T20:12:07.599Z,39.35
2022-11-02T20:17:29.693Z,36.70
2022-11-02T20:19:52.474Z,40.25
2022-11-02T20:22:20.282Z,41.45
2022-11-02T20:24:47.872Z,42.10
2022-11-02T20:27:15.765Z,45.67
2022-11-02T20:29:43.387Z,43.78
2022-11-02T20:32:12.579Z,43.15
2022-11-02T20:34:40.221Z,40.83
2022-11-02T20:37:09.363Z,38.47
2022-11-02T20:39:36.904Z,39.63
2022-11-02T20:42:04.943Z,39.58
2022-11-02T20:44:32.943Z,38.53
2022-11-02T20:47:00.913Z,37.90
2022-11-02T20:49:49.409Z,38.38
2022-11-02T20:52:16.400Z,38.65
2022-11-02T20:54:43.970Z,39.55
2022-11-02T20:57:11.831Z,37.97
2022-11-02T20:59:39.656Z,38.33
2022-11-02T21:02:12.585Z,41.30
2022-11-02T21:04:40.504Z,38.72
2022-11-02T21:07:08.356Z,41.08
2022-11-02T21:09:39.190Z,41.33
2022-11-02T21:12:26.073Z,40.17
2022-11-02T21:14:53.647Z,39.97
2022-11-02T21:17:21.596Z,39.30
2022-11-02T21:19:57.987Z,39.00
2022-11-02T21:22:36.684Z,38.90
2022-11-02T21:25:04.553Z,38.25
2022-11-02T21:27:32.475Z,36.78
2022-11-02T21:30:00.063Z,36.60
2022-11-02T21:32:28.005Z,36.97
2022-11-02T21:34:55.560Z,36.83
2022-11-02T21:37:23.743Z,38.60
2022-11-02T21:39:51.256Z,38.42
2022-11-02T21:42:19.209Z,37.70
2022-11-02T21:44:46.771Z,38.50
2022-11-02T21:47:16.940Z,38.90
2022-11-02T21:49:44.499Z,39.83
2022-11-02T21:52:13.794Z,39.03
2022-11-02T21:54:41.350Z,39.38
2022-11-02T21:57:09.245Z,40.65
2022-11-02T21:59:36.739Z,39.65
2022-11-02T22:02:04.800Z,40.10
2022-11-02T22:04:32.510Z,38.20
2022-11-02T22:07:01.105Z,41.25
2022-11-02T22:09:29.286Z,40.40
2022-11-02T22:12:16.128Z,38.78
2022-11-02T22:14:44.928Z,41.30
2022-11-02T22:17:35.389Z,43.65
2022-11-02T22:20:01.590Z,41.83
2022-11-02T22:22:29.218Z,42.45
2022-11-02T22:24:56.991Z,41.55
2022-11-02T22:27:24.492Z,40.75
2022-11-02T22:29:52.332Z,40.85
2022-11-02T22:32:19.880Z,42.47
2022-11-02T22:34:48.038Z,41.35
2022-11-02T22:37:34.297Z,39.95
2022-11-02T22:40:02.234Z,39.60
2022-11-02T22:42:29.694Z,40.38
2022-11-02T22:44:58.596Z,42.58
2022-11-02T22:47:26.467Z,40.65
2022-11-02T22:49:54.469Z,39.35
2022-11-02T22:52:21.999Z,44.08
2022-11-02T22:54:50.481Z,43.67
2022-11-02T22:57:17.944Z,43.20
2022-11-02T22:59:45.809Z,48.22
2022-11-02T23:02:13.402Z,45.88
2022-11-02T23:04:41.411Z,47.03
2022-11-02T23:07:09.060Z,46.15
2022-11-02T23:09:37.050Z,46.58
2022-11-02T23:12:04.789Z,48.22
2022-11-02T23:14:32.845Z,48.95
2022-11-02T23:17:00.580Z,48.90
2022-11-02T23:19:33.099Z,50.40
2022-11-02T23:22:23.687Z,49.47
2022-11-02T23:25:14.228Z,49.65
2022-11-02T23:28:14.606Z,48.78
2022-11-02T23:31:02.280Z,49.03
2022-11-02T23:33:48.189Z,48.20
2022-11-02T23:36:16.391Z,47.92
2022-11-02T23:39:05.379Z,51.15
2022-11-02T23:41:36.822Z,50.70
2022-11-02T23:44:19.014Z,50.35
2022-11-02T23:46:51.197Z,47.75
2022-11-02T23:49:19.351Z,47.75
2022-11-02T23:52:06.080Z,50.97
2022-11-02T23:54:52.213Z,46.00
2022-11-02T23:57:22.500Z,46.85
2022-11-02T23:59:50.700Z,53.13
